Thursday, November 23, 2017, 2:12 AM EST
Back to Local

KGTB, Fort Drum / Wheeler-sack U. S. Army Airfield

Location: Fort Drum, NY, United States Lat: 44.05
Local Time: 2:12 AM EST ( 7:12 GMT) Lon: -75.733
Time Zone: US/Eastern Elev: 679 ft

Show me the last for .
Show Decoded

2017-11-23 01:06 METAR KGTB 230606Z 01006KT 10SM SCT017 OVC027 M05/M10 A3012 RMK AO2A CIG 016V027
                 SLP209 CHINO RWY03 $ =
2017-11-23 00:56 METAR KGTB 230556Z 02004KT 10SM BKN016 OVC027 M05/M10 A3012 RMK AO2A SLP209
                 P0000 60000 T10551099 11022 21055 58004 CHINO RWY03 $ =
2017-11-23 00:10 METAR KGTB 230510Z 04006KT 10SM OVC017 M05/M09 A3013 RMK AO2A OVC V BKN SLP213
                 CHINO RWY03 $ =
2017-11-23 00:08 METAR KGTB 230508Z 03007KT 10SM -SN BKN017 OVC028 M05/M09 A3013 RMK AO2A SLP213
                 CHINO RWY03 $ =
2017-11-22 23:56 METAR KGTB 230456Z 03008KT 10SM -SN FEW014 OVC020 M05/M09 A3013 RMK AO2A
                 SNB10E31SNB32 SLP213 P0000 T10521089 400721052 CHINO RWY03 $ =
2017-11-22 23:32 METAR KGTB 230432Z 02006KT 10SM -SN BKN018 OVC025 M05/M09 A3014 RMK AO2A
                 SNB10E31SNB32 CIG 016V021 SLP216 CHINO RWY03 $ =
2017-11-22 23:31 METAR KGTB 230431Z 01006KT 10SM BKN018 OVC025 M05/M09 A3014 RMK AO2A SNB10E31
                 CIG 016V021 SLP216 CHINO RWY03 $ =
2017-11-22 23:20 METAR KGTB 230420Z 33006KT 10SM -SN BKN019 OVC026 M05/M10 A3014 RMK AO2A SNB10
                 CIG 019V023 SLP216 CHINO RWY03 $ =
2017-11-22 23:10 METAR KGTB 230410Z 36006KT 10SM -SN OVC023 M05/M09 A3014 RMK AO2A SNB10 SLP216
                 CHINO RWY03 $ =
2017-11-22 22:56 METAR KGTB 230356Z 36004KT 10SM SCT020 OVC025 M05/M09 A3014 RMK AO2A SNB25E45
                 SLP216 P0000 T10481093 CHINO RWY03 $ =
2017-11-22 22:45 METAR KGTB 230345Z 34005KT 10SM OVC025 M05/M09 A3014 RMK AO2A SNB25E45 SLP216
                 CHINO RWY03 $ =
2017-11-22 22:25 METAR KGTB 230325Z 35006KT 10SM -SN OVC023 M04/M09 A3014 RMK AO2A SNB25 SLP215
                 CHINO RWY03 $ =
2017-11-22 21:56 METAR KGTB 230256Z COR 36008KT 10SM OVC025 M04/M09 A3013 RMK AO2 SNB20E29 SLP213
                 P0000 60000 T10411088 52007 CHINO RWY03 $ COR 0304 =
2017-11-22 21:29 METAR KGTB 230229Z COR 02008KT 10SM OVC026 M04/M08 A3013 RMK AO2 SNB20E29 SLP213
                 CHINO RWY03 $ COR 0243 =
2017-11-22 21:20 METAR KGTB 230220Z COR 02007KT 10SM -SN OVC026 M04/M08 A3013 RMK AO2 SNB20
                 SLP213 CHINO RWY03 $ COR 0242 =
2017-11-22 20:56 METAR KGTB 230156Z AUTO 02008KT 10SM OVC027 M03/M08 A3013 RMK AO2 SLP212
                 T10351082 CHINO RWY03 $ =
2017-11-22 20:16 METAR KGTB 230116Z 02007KT 10SM SCT019 OVC028 M03/M08 A3012 RMK AO2A CIG 019V028
                 SLP209 CHINO RWY03 $ =
2017-11-22 19:56 METAR KGTB 230056Z 02007KT 10SM BKN019 OVC030 M03/M07 A3012 RMK AO2A SNB31E40
                 SLP209 P0000 T10271069 CHINO RWY03 $ =
2017-11-22 19:50 METAR KGTB 230050Z 02007KT 10SM BKN019 OVC024 M03/M06 A3012 RMK AO2A SNB31E40
                 SLP209 CHINO RWY03 $ =
2017-11-22 19:40 METAR KGTB 230040Z 01008KT 10SM BKN021 OVC032 M02/M06 A3012 RMK AO2A SNB31E40
                 SLP209 CHINO RWY03 $ =
2017-11-22 19:31 METAR KGTB 230031Z COR 01005KT 10SM -SN BKN021 OVC032 M02/M06 A3012 RMK AO2
                 SNB31 CIG 019V032 SLP209 CHINO RWY03 $ COR 0033 =
2017-11-22 19:26 METAR KGTB 230026Z AUTO 36004KT 10SM BKN019 OVC032 M02/M05 A3012 RMK AO2 CIG
                 019V032 BKN V SCT SLP209 CHINO RWY03 $ =
2017-11-22 18:56 METAR KGTB 222356Z 01005KT 10SM BKN017 OVC022 M02/M05 A3011 RMK AO2A SNB35E44
                 SLP205 P0000 60000 4/001 T10221054 10002 21022 52016 CHINO RWY03 $ =
2017-11-22 18:44 METAR KGTB 222344Z 03005KT 10SM BKN017 OVC023 M02/M05 A3011 RMK AO2A SNB35E44
                 SLP205 CHINO RWY03 $ =
2017-11-22 18:35 METAR KGTB 222335Z COR 02007KT 10SM -SN OVC016 M02/M05 A3011 RMK AO2 SNB35 OVC V
                 BKN SLP205 CHINO RWY03 $ COR 2337 =
2017-11-22 18:26 METAR KGTB 222326Z AUTO 01006KT 10SM BKN016 OVC023 M02/M05 A3011 RMK AO2 CIG
                 016V023 BKN V SCT SLP205 CHINO RWY03 $ =
2017-11-22 17:56 METAR KGTB 222256Z AUTO 00000KT 10SM OVC025 M02/M05 A3010 RMK AO2 OVC V BKN
                 SLP202 T10181046 CHINO RWY03 $ =
2017-11-22 17:36 METAR KGTB 222236Z AUTO 01005KT 10SM BKN025 OVC041 M02/M04 A3010 RMK AO2 CIG
                 025V041 BKN V SCT SLP201 CHINO RWY03 $ =
2017-11-22 17:16 METAR KGTB 222216Z AUTO 02004KT 10SM FEW018 SCT025 OVC040 M02/M04 A3009 RMK AO2
                 SLP198 CHINO RWY03 $ =
2017-11-22 16:56 METAR KGTB 222156Z AUTO 36004KT 10SM OVC021 M02/M04 A3009 RMK AO2 SLP198
                 T10161044 CHINO RWY03 $ =
2017-11-22 16:36 METAR KGTB 222136Z AUTO 36004KT 10SM BKN024 OVC042 M02/M04 A3009 RMK AO2 CIG
                 024V042 BKN V SCT SLP198 CHINO RWY03 $ =
2017-11-22 15:56 METAR KGTB 222056Z AUTO 01005KT 10SM SCT019 OVC041 M01/M04 A3007 RMK AO2 SLP191
                 60000 T10141041 52022 CHINO RWY03 $ =
2017-11-22 15:36 METAR KGTB 222036Z AUTO 36005KT 10SM SCT014 OVC041 M01/M04 A3006 RMK AO2 SLP187
                 CHINO RWY03 $ =
2017-11-22 15:06 METAR KGTB 222006Z AUTO 34008KT 10SM OVC012 M01/M04 A3005 RMK AO2 SLP183 CHINO
                 RWY03 $ =
2017-11-22 14:56 METAR KGTB 221956Z 35007KT 10SM BKN009 OVC014 M01/M04 A3004 RMK AO2A
                 SNE1856SNB1856E11SNB11E15SNB38E48 BKN V OVC SLP180 P0000 T10121036 CHINO RWY03 $
                 =
2017-11-22 14:48 METAR KGTB 221948Z AUTO 34005KT 10SM OVC009 M01/M03 A3004 RMK AO2
                 SNE1856UPB1856E11DZB11E15DZB38E48 SLP180 CHINO RWY03 $ =
2017-11-22 14:38 METAR KGTB 221938Z COR 34007KT 10SM -SN OVC009 M01/M03 A3003 RMK AO2
                 SNE1856UPB1856E11DZB11E15SNB38 SLP176 CHINO RWY03 $ COR 1948 =
2017-11-22 14:15 METAR KGTB 221915Z 35008KT 10SM OVC009 M01/M03 A3002 RMK AO2A
                 SNE1856SNB1856E11DZB11E15 OVC V BKN SLP172 CHINO RWY03 $ =
2017-11-22 13:56 METAR KGTB 221856Z 35009KT 10SM -SN BKN009 OVC015 M01/M03 A3002 RMK AO2A
                 RAE16SNB16E43SNB45 CIG 009V015 SLP172 P0000 T10091028 CHINO RWY03 $ =
2017-11-22 13:55 METAR KGTB 221855Z 35009KT 10SM -SN BKN009 OVC015 M01/M03 A3002 RMK AO2A
                 RAE16SNB16E43SNB45 CIG 008V015 SLP172 CHINO RWY03 $ =
2017-11-22 13:45 METAR KGTB 221845Z 36009G15KT 10SM -SN BKN008 OVC013 M01/M03 A3001 RMK AO2A
                 RAE16SNB16E43SNB45 SLP169 CHINO RWY03 $ =
2017-11-22 13:43 METAR KGTB 221843Z 36008G15KT 10SM BKN008 OVC013 M01/M03 A3001 RMK AO2A
                 RAE16SNB16E43 SLP169 CHINO RWY03 $ =
2017-11-22 13:41 METAR KGTB 221841Z 35011G15KT 10SM -SN BKN008 OVC013 M01/M03 A3001 RMK AO2A
                 RAE16SNB16 SLP169 CHINO RWY03 $ =
2017-11-22 13:21 METAR KGTB 221821Z COR 36009KT 10SM -SN OVC007 00/M02 A3001 RMK AO2 RAE16SNB16
                 SLP169 CHINO RWY03 $ COR 1834 =
2017-11-22 13:11 METAR KGTB 221811Z AUTO 35011KT 10SM -RA BKN006 OVC016 00/M01 A3000 RMK AO2 CIG
                 006V008 SLP166 CHINO RWY03 $ =
2017-11-22 13:01 METAR KGTB 221801Z AUTO 01008KT 10SM -RA BKN008 OVC016 00/M01 A3000 RMK AO2 CIG
                 008V017 SLP166 CHINO RWY03 $ =
2017-11-22 12:56 METAR KGTB 221756Z 35007KT 10SM -RA FEW009 BKN014 BKN019 OVC037 00/M01 A3000 RMK
                 AO2A RAB24E38RAB46 CIG 012V017 SLP166 P0001 60003 4/001 T00021014 10018 20002
                 53001 CHINO RWY03 $ =
2017-11-22 12:46 METAR KGTB 221746Z AUTO 36007KT 10SM -RA SCT011 BKN016 OVC038 00/M01 A3000 RMK
                 AO2 RAB24E38RAB46 SLP166 CHINO RWY03 $ =
2017-11-22 12:38 METAR KGTB 221738Z AUTO 36007KT 10SM FEW009 BKN014 OVC038 01/M01 A2999 RMK AO2
                 RAB24E38 SLP162 CHINO RWY03 $ =
2017-11-22 12:24 METAR KGTB 221724Z AUTO 34011G15KT 10SM -RA BKN014 OVC038 02/00 A2999 RMK AO2
                 RAB24 CIG 014V038 SLP162 CHINO RWY03 $ =
2017-11-22 12:16 METAR KGTB 221716Z AUTO 30006KT 10SM BKN014 OVC038 02/M01 A2999 RMK AO2 CIG
                 014V038 SLP162 CHINO RWY03 $ =
2017-11-22 11:56 METAR KGTB 221656Z AUTO 30004KT 10SM OVC038 02/M01 A2998 RMK AO2
                 UPB25E33DZB33E35 SLP158 P0002 T00151006 CHINO RWY03 $ =
2017-11-22 11:35 METAR KGTB 221635Z AUTO 30004KT 10SM FEW020 OVC034 02/00 A2999 RMK AO2
                 UPB25E33DZB33E35 SLP162 CHINO RWY03 $ =
2017-11-22 11:25 METAR KGTB 221625Z AUTO 30005KT 10SM -UP SCT020 OVC034 02/M01 A2999 RMK AO2
                 UPB25 SLP162 CHINO RWY03 $ =
2017-11-22 10:56 METAR KGTB 221556Z AUTO 00000KT 10SM OVC040 02/00 A3000 RMK AO2 SLP165 T00170002
                 CHINO RWY03 $ =
2017-11-22 09:56 METAR KGTB 221456Z AUTO 23003KT 10SM OVC060 01/00 A3000 RMK AO2 SLP165 60000
                 T00051002 50012 CHINO RWY03 $ =
2017-11-22 08:56 METAR KGTB 221356Z AUTO 21003KT 10SM FEW008 00/00 A3001 RMK AO2 SNE38 SLP169
                 P0000 T00021004 CHINO RWY03 $ =
2017-11-22 08:48 METAR KGTB 221348Z AUTO 20003KT 10SM FEW002 SCT008 00/00 A3001 RMK AO2 SNE38
                 SLP170 CHINO RWY03 $ =
2017-11-22 08:38 METAR KGTB 221338Z AUTO 00000KT 2 1/2SM BR SCT002 BKN006 00/00 A3000 RMK AO2 VIS
                 1 5/8V2 1/2 SNE38 CIG 002V006 BKN V OVC SLP166 CHINO RWY03 $ =
2017-11-22 08:36 METAR KGTB 221336Z AUTO 00000KT 1 7/8SM -SN BR BKN002 BKN006 00/00 A3000 RMK AO2
                 VIS 1 3/8V1 7/8 SLP166 CHINO RWY03 $ =
2017-11-22 08:26 METAR KGTB 221326Z AUTO 00000KT 1 3/8SM -SN BR BKN002 OVC008 00/00 A3000 RMK AO2
                 BKN V OVC SLP166 CHINO RWY03 $ =
2017-11-22 08:16 METAR KGTB 221316Z AUTO 29003KT 1 1/8SM -SN BR OVC002 00/00 A3000 RMK AO2 VIS 1
                 1/8V1 5/8 SLP166 CHINO RWY03 $ =
2017-11-22 07:56 METAR KGTB 221256Z AUTO 27003KT 1 7/8SM -SN BR OVC002 00/00 A2999 RMK AO2 SLP162
                 P0000 T00031003 CHINO RWY03 $ =
2017-11-22 07:46 METAR KGTB 221246Z AUTO 27004KT 2SM -SN BR OVC002 00/00 A2999 RMK AO2 VIS 1 1/2
                 RWY15 SLP162 CHINO RWY03 $ =
2017-11-22 07:26 METAR KGTB 221226Z AUTO 28003KT 1 5/8SM -SN BR OVC002 00/00 A2998 RMK AO2 VIS 1
                 1/2V2 SLP158 CHINO RWY03 $ =
2017-11-22 07:16 METAR KGTB 221216Z AUTO 00000KT 2SM -SN BR OVC002 00/00 A2997 RMK AO2 VIS 1 1/8
                 RWY15 SLP155 CHINO RWY03 $ =
2017-11-22 07:06 METAR KGTB 221206Z AUTO 29003KT 1 3/4SM -SN BR OVC002 00/00 A2996 RMK AO2 VIS 1
                 1/4 RWY15 SLP152 CHINO RWY03 $ =
2017-11-22 07:01 METAR KGTB 221201Z AUTO 29003KT 1 7/8SM R21/5000FT -SN BR OVC002 00/00 A2996 RMK
                 AO2 SLP152 CHINO RWY03 $ =
2017-11-22 06:56 METAR KGTB 221156Z 30004KT 1 3/4SM R21/4500FT -SN BR OVC002 00/00 A2996 RMK AO2A
                 SLP152 P0001 60015 70015 4/000 T00021004 10072 20002 52028 CHINO RWY03 $ =
2017-11-22 06:16 METAR KGTB 221116Z AUTO 00000KT 1 7/8SM R21/4500FT -SN BR OVC002 00/00 A2995 RMK
                 AO2 SLP149 CHINO RWY03 $ =
2017-11-22 06:11 METAR KGTB 221111Z AUTO 00000KT 2SM R21/5000FT -SN BR OVC002 00/00 A2994 RMK AO2
                 SLP145 CHINO RWY03 $ =
2017-11-22 06:01 METAR KGTB 221101Z AUTO 00000KT 2 1/4SM R21/5000FT -SN BR OVC002 01/00 A2994 RMK
                 AO2 VIS 2 1/4V3 CIG 002V004 SLP145 CHINO RWY03 $ =
2017-11-22 05:56 METAR KGTB 221056Z AUTO 00000KT 3SM R21/6000FT -SN BR OVC002 01/00 A2994 RMK AO2
                 RAE34UPB34E40SNB40 CIG 002V004 SLP145 P0005 T00061001 CHINO RWY03 $ =
2017-11-22 05:46 METAR KGTB 221046Z AUTO 34004KT 5SM -SN BR OVC004 01/00 A2994 RMK AO2
                 RAE34UPB34E40SNB40 SLP145 CHINO RWY03 $ =
2017-11-22 05:06 METAR KGTB 221006Z AUTO 29005KT 10SM -RA OVC005 02/01 A2991 RMK AO2 SLP134 CHINO
                 RWY03 $ =
2017-11-22 04:56 METAR KGTB 220956Z AUTO 31004KT 9SM -RA OVC004 03/02 A2991 RMK AO2 SLP133 P0005
                 T00260016 CHINO RWY03 $ =
2017-11-22 04:46 METAR KGTB 220946Z AUTO 32004KT 8SM RA BKN003 OVC009 03/02 A2991 RMK AO2 CIG
                 003V005 SLP133 CHINO RWY03 $ =
2017-11-22 04:36 METAR KGTB 220936Z AUTO 31003KT 9SM -RA BKN005 OVC012 03/02 A2990 RMK AO2 CIG
                 005V012 BKN V SCT SLP130 CHINO RWY03 $ =
2017-11-22 04:26 METAR KGTB 220926Z AUTO 32005KT 10SM -RA SCT005 OVC014 03/02 A2989 RMK AO2 CIG
                 005V014 SLP127 CHINO RWY03 $ =
2017-11-22 04:16 METAR KGTB 220916Z AUTO 29005KT 10SM -RA BKN005 OVC012 03/02 A2989 RMK AO2
                 SLP127 CHINO RWY03 $ =
2017-11-22 03:56 METAR KGTB 220856Z AUTO 30006KT 10SM -RA BKN004 OVC010 04/03 A2988 RMK AO2
                 DZE14RAB14E24DZB24E29RAB29 BKN V OVC SLP123 P0001 60004 T00390027 50011 CHINO
                 RWY03 $ =
2017-11-22 03:46 METAR KGTB 220846Z AUTO 29008KT 8SM -RA OVC005 05/04 A2987 RMK AO2
                 DZE14RAB14E24DZB24E29RAB29 SLP119 CHINO RWY03 $ =
2017-11-22 03:26 METAR KGTB 220826Z AUTO 29005KT 10SM -DZ OVC006 05/04 A2986 RMK AO2
                 DZE14RAB14E24DZB24 SLP116 CHINO RWY03 $ =
2017-11-22 02:56 METAR KGTB 220756Z AUTO 25004KT 8SM -DZ OVC007 06/05 A2986 RMK AO2 RAE41DZB41
                 OVC V BKN SLP115 P0002 T00580048 CHINO RWY03 $ =
2017-11-22 02:37 METAR KGTB 220737Z AUTO 24004KT 9SM -RA BKN007 OVC013 06/05 A2986 RMK AO2 CIG
                 007V011 SLP115 CHINO RWY03 $ =
2017-11-22 02:36 METAR KGTB 220736Z AUTO 24003KT 9SM -RA BKN009 OVC013 06/05 A2986 RMK AO2 CIG
                 009V011 SLP115 CHINO RWY03 $ =

Support USWX by starting your Amazon purchase here.